Time;durP1;ratioP1;P1;durP2;ratioP2;P2;SDS_P1;SDS_P2;PMS_P1;PMS_P2;Temp;Humidity;BMP_temperature;BMP_pressure;BME280_temperature;BME280_humidity;BME280_pressure;Samples;Min_cycle;Max_cycle;Signal;HPM_P1;HPM_P2
2022/04/23 00:00:36;;;;;;;20.17;11.85;;;6.30;99.90;;;;;;5006620;28;20025;-78
2022/04/23 00:03:02;;;;;;;16.40;11.85;;;6.30;99.90;;;;;;5004282;28;20030;-78
2022/04/23 00:05:28;;;;;;;17.73;11.85;;;6.30;99.90;;;;;;5006160;28;20049;-78
2022/04/23 00:07:54;;;;;;;18.05;12.48;;;6.30;99.90;;;;;;5002220;28;20523;-78
2022/04/23 00:10:20;;;;;;;17.75;13.02;;;6.30;99.90;;;;;;5002996;28;20038;-78
2022/04/23 00:12:46;;;;;;;16.27;11.52;;;6.30;99.90;;;;;;5001785;28;20022;-78
2022/04/23 00:15:13;;;;;;;16.60;11.43;;;6.30;99.90;;;;;;5003219;28;20550;-78
2022/04/23 00:17:39;;;;;;;15.90;12.25;;;6.20;99.90;;;;;;5003241;28;20049;-78
2022/04/23 00:20:05;;;;;;;20.08;12.15;;;6.20;99.90;;;;;;5005986;28;20363;-78
2022/04/23 00:22:31;;;;;;;15.25;11.63;;;6.20;99.90;;;;;;5007285;28;20026;-78
2022/04/23 00:24:57;;;;;;;18.33;12.95;;;6.10;99.90;;;;;;4999108;28;20258;-78
2022/04/23 00:27:23;;;;;;;18.20;11.77;;;6.10;99.90;;;;;;5004382;28;20109;-78
2022/04/23 00:29:48;;;;;;;18.02;12.30;;;6.00;99.90;;;;;;5004969;28;20116;-78
2022/04/23 00:32:14;;;;;;;17.67;11.73;;;6.00;99.90;;;;;;5005167;28;20109;-78
2022/04/23 00:34:40;;;;;;;15.20;11.80;;;6.00;99.90;;;;;;5001585;28;20037;-78
2022/04/23 00:37:05;;;;;;;16.70;11.52;;;5.90;99.90;;;;;;5006565;28;20477;-77
2022/04/23 00:39:32;;;;;;;16.70;12.00;;;5.90;99.90;;;;;;5004539;28;20030;-78
2022/04/23 00:42:00;;;;;;;16.27;12.10;;;5.80;99.90;;;;;;5005660;28;20286;-78
2022/04/23 00:44:26;;;;;;;18.90;12.85;;;5.80;99.90;;;;;;5005392;28;20053;-77
2022/04/23 00:46:52;;;;;;;15.18;11.85;;;5.80;99.90;;;;;;5004423;28;20734;-78
2022/04/23 00:49:17;;;;;;;17.38;11.80;;;5.70;99.90;;;;;;5002196;28;20034;-77
2022/04/23 00:51:43;;;;;;;15.90;11.65;;;5.70;99.90;;;;;;5001173;28;20091;-77
2022/04/23 00:54:10;;;;;;;17.80;12.00;;;5.70;99.90;;;;;;5008986;28;20456;-78
2022/04/23 00:56:37;;;;;;;14.45;11.45;;;5.60;99.90;;;;;;5010495;28;20501;-78
2022/04/23 00:59:05;;;;;;;17.90;11.93;;;5.60;99.90;;;;;;5003644;28;20033;-78
2022/04/23 01:01:30;;;;;;;15.65;11.45;;;5.50;99.90;;;;;;5005824;28;20596;-78
2022/04/23 01:03:57;;;;;;;19.70;12.32;;;5.50;99.90;;;;;;5001217;28;20026;-78
2022/04/23 01:06:24;;;;;;;16.52;11.93;;;5.50;99.90;;;;;;5008017;28;20022;-78
2022/04/23 01:08:50;;;;;;;15.80;11.48;;;5.50;99.90;;;;;;5011311;28;20032;-78
2022/04/23 01:11:16;;;;;;;20.73;12.25;;;5.40;99.90;;;;;;5006383;28;20042;-78
2022/04/23 01:13:44;;;;;;;17.48;12.48;;;5.40;99.90;;;;;;5003807;28;20044;-79
2022/04/23 01:16:10;;;;;;;15.43;11.60;;;5.40;99.90;;;;;;5005455;28;20072;-78
2022/04/23 01:18:40;;;;;;;17.58;11.48;;;5.30;99.90;;;;;;5005394;28;20374;-78
2022/04/23 01:21:09;;;;;;;21.75;12.43;;;5.30;99.90;;;;;;5006988;28;20057;-78
2022/04/23 01:23:35;;;;;;;16.83;11.93;;;5.30;99.90;;;;;;5001599;28;20497;-78
2022/04/23 01:26:03;;;;;;;16.60;11.52;;;5.30;99.90;;;;;;5004475;28;20052;-78
2022/04/23 01:28:29;;;;;;;18.08;12.40;;;5.20;99.90;;;;;;5006435;28;20083;-78
2022/04/23 01:30:59;;;;;;;16.95;11.98;;;5.10;99.90;;;;;;5006070;28;20105;-78
2022/04/23 01:33:24;;;;;;;16.05;11.90;;;5.20;99.90;;;;;;5001918;28;20040;-78
2022/04/23 01:35:50;;;;;;;19.83;12.15;;;5.10;99.90;;;;;;5002429;28;20045;-77
2022/04/23 01:38:15;;;;;;;16.33;11.80;;;5.10;99.90;;;;;;5001676;28;20041;-78
2022/04/23 01:40:41;;;;;;;16.48;12.23;;;5.10;99.90;;;;;;5007561;28;20112;-78
2022/04/23 01:43:08;;;;;;;17.45;12.25;;;5.10;99.90;;;;;;5001159;28;20107;-78
2022/04/23 01:45:34;;;;;;;16.63;11.57;;;5.00;99.90;;;;;;5008983;28;20457;-78
2022/04/23 01:48:00;;;;;;;15.63;11.73;;;5.00;99.90;;;;;;5004846;28;20022;-78
2022/04/23 01:50:25;;;;;;;17.45;12.48;;;5.00;99.90;;;;;;5005569;28;20027;-78
2022/04/23 01:52:50;;;;;;;16.67;11.60;;;5.00;99.90;;;;;;5007028;28;20025;-78
2022/04/23 01:55:16;;;;;;;18.35;12.90;;;4.90;99.90;;;;;;5005000;28;20026;-78
2022/04/23 01:57:42;;;;;;;17.42;12.93;;;5.00;99.90;;;;;;5001952;28;20091;-78
2022/04/23 02:00:10;;;;;;;17.85;12.35;;;4.90;99.90;;;;;;5001333;28;20036;-77
2022/04/23 02:02:36;;;;;;;17.95;12.50;;;4.90;99.90;;;;;;5005343;28;20022;-78
2022/04/23 02:05:03;;;;;;;17.73;12.77;;;4.90;99.90;;;;;;5004437;28;20032;-78
2022/04/23 02:07:28;;;;;;;17.00;12.35;;;4.90;99.90;;;;;;4996962;28;20033;-78
2022/04/23 02:09:54;;;;;;;16.23;11.25;;;4.80;99.90;;;;;;5002341;28;20037;-78
2022/04/23 02:12:19;;;;;;;17.30;11.80;;;4.80;99.90;;;;;;4999828;28;20541;-78
2022/04/23 02:14:45;;;;;;;16.77;11.50;;;4.80;99.90;;;;;;5001558;28;20546;-77
2022/04/23 02:17:10;;;;;;;16.17;11.40;;;4.80;99.90;;;;;;4999018;28;20038;-78
2022/04/23 02:19:36;;;;;;;19.48;12.68;;;4.70;99.90;;;;;;5001420;28;20168;-78
2022/04/23 02:22:02;;;;;;;17.40;12.73;;;4.70;99.90;;;;;;4998831;28;20037;-78
2022/04/23 02:24:27;;;;;;;19.27;12.48;;;4.70;99.90;;;;;;5000974;28;20030;-78
2022/04/23 02:26:52;;;;;;;17.23;12.40;;;4.70;99.90;;;;;;5002423;28;20554;-78
2022/04/23 02:29:18;;;;;;;18.15;12.23;;;4.70;99.90;;;;;;5008099;28;20026;-77
2022/04/23 02:31:43;;;;;;;16.98;12.02;;;4.70;99.90;;;;;;5000470;28;20032;-78
2022/04/23 02:34:09;;;;;;;18.25;12.95;;;4.70;99.90;;;;;;5000515;28;20032;-78
2022/04/23 02:36:35;;;;;;;16.38;12.38;;;4.70;99.90;;;;;;4997228;28;20028;-78
2022/04/23 02:39:02;;;;;;;17.17;12.55;;;4.60;99.90;;;;;;5002322;28;20152;-78
2022/04/23 02:41:28;;;;;;;15.57;11.45;;;4.60;99.90;;;;;;5005082;28;20076;-77
2022/04/23 02:43:54;;;;;;;18.42;12.05;;;4.60;99.90;;;;;;4999801;28;20033;-78
2022/04/23 02:46:19;;;;;;;19.00;12.10;;;4.60;99.90;;;;;;4999797;28;20485;-78
2022/04/23 02:48:45;;;;;;;18.23;12.07;;;4.60;99.90;;;;;;5003417;28;20057;-78
2022/04/23 02:51:15;;;;;;;20.10;13.52;;;4.60;99.90;;;;;;5004775;28;20025;-78
2022/04/23 02:53:43;;;;;;;18.02;12.05;;;4.60;99.90;;;;;;5004604;28;20048;-77
2022/04/23 02:56:13;;;;;;;18.13;12.55;;;4.60;99.90;;;;;;5003213;28;20022;-78
2022/04/23 02:58:40;;;;;;;17.45;12.45;;;4.60;99.90;;;;;;5001479;28;20036;-78
2022/04/23 03:01:09;;;;;;;15.45;11.80;;;4.50;99.90;;;;;;5006504;28;20477;-78
2022/04/23 03:03:36;;;;;;;20.52;13.35;;;4.50;99.90;;;;;;5002374;28;20042;-78
2022/04/23 03:06:02;;;;;;;18.10;12.93;;;4.50;99.90;;;;;;5005351;28;20066;-78
2022/04/23 03:08:28;;;;;;;18.05;13.38;;;4.50;99.90;;;;;;5004688;28;20392;-78
2022/04/23 03:10:53;;;;;;;19.65;13.00;;;4.40;99.90;;;;;;5008363;28;20123;-78
2022/04/23 03:13:19;;;;;;;17.08;12.48;;;4.30;99.90;;;;;;5003736;28;20022;-78
2022/04/23 03:15:45;;;;;;;19.88;12.93;;;4.40;99.90;;;;;;5006393;28;20022;-78
2022/04/23 03:18:12;;;;;;;19.98;13.18;;;4.40;99.90;;;;;;5002837;28;20030;-78
2022/04/23 03:20:41;;;;;;;18.35;13.27;;;4.30;99.90;;;;;;5005530;28;20065;-77
2022/04/23 03:23:06;;;;;;;19.10;13.15;;;4.30;99.90;;;;;;5006096;28;20481;-77
2022/04/23 03:25:32;;;;;;;19.23;13.98;;;4.30;99.90;;;;;;5001612;28;20033;-77
2022/04/23 03:27:59;;;;;;;20.55;13.35;;;4.30;99.90;;;;;;5005360;28;20033;-77
2022/04/23 03:30:25;;;;;;;22.40;13.68;;;4.30;99.90;;;;;;5007536;28;20397;-77
2022/04/23 03:32:50;;;;;;;20.17;14.18;;;4.20;99.90;;;;;;5013590;28;20040;-77
2022/04/23 03:35:16;;;;;;;18.35;13.13;;;4.30;99.90;;;;;;5011406;28;20021;-77
2022/04/23 03:37:41;;;;;;;21.75;14.18;;;4.30;99.90;;;;;;5005329;28;20037;-77
2022/04/23 03:40:09;;;;;;;21.70;13.77;;;4.30;99.90;;;;;;5008313;28;20516;-77
2022/04/23 03:42:35;;;;;;;19.23;13.13;;;4.30;99.90;;;;;;5007843;28;20030;-77
2022/04/23 03:45:04;;;;;;;19.23;13.05;;;4.30;99.90;;;;;;5005138;28;20087;-77
2022/04/23 03:47:31;;;;;;;20.30;14.77;;;4.30;99.90;;;;;;5007192;28;20164;-77
2022/04/23 03:49:57;;;;;;;18.58;13.93;;;4.30;99.90;;;;;;5001488;28;20084;-77
2022/04/23 03:52:22;;;;;;;20.80;13.65;;;4.30;99.90;;;;;;5004543;28;20109;-78
2022/04/23 03:54:48;;;;;;;22.48;13.95;;;4.30;99.90;;;;;;5004552;28;20033;-78
2022/04/23 03:57:13;;;;;;;19.10;13.95;;;4.30;99.90;;;;;;5006574;28;20037;-77
2022/04/23 03:59:39;;;;;;;21.63;14.50;;;4.30;99.90;;;;;;5002853;28;20473;-77
2022/04/23 04:02:05;;;;;;;19.83;14.63;;;4.30;99.90;;;;;;5001427;28;20402;-78
2022/04/23 04:04:32;;;;;;;20.52;13.30;;;4.20;99.90;;;;;;5004755;28;20032;-77
2022/04/23 04:06:59;;;;;;;20.08;14.38;;;4.30;99.90;;;;;;5008282;28;20029;-77
2022/04/23 04:09:25;;;;;;;23.83;14.95;;;4.30;99.90;;;;;;5005080;28;20033;-77
2022/04/23 04:12:03;;;;;;;21.83;14.68;;;4.20;99.90;;;;;;5004769;28;20107;-77
2022/04/23 04:14:34;;;;;;;21.35;14.23;;;4.30;99.90;;;;;;5006741;28;20030;-77
2022/04/23 04:17:00;;;;;;;20.83;14.90;;;4.40;99.90;;;;;;5006121;28;20026;-77
2022/04/23 04:19:26;;;;;;;20.67;14.82;;;4.40;99.90;;;;;;5006719;28;20028;-77
2022/04/23 04:21:52;;;;;;;21.77;15.50;;;4.40;99.90;;;;;;5003376;28;20034;-77
2022/04/23 04:24:18;;;;;;;19.63;13.77;;;4.40;99.90;;;;;;5011973;28;20073;-78
2022/04/23 04:26:46;;;;;;;20.58;14.40;;;4.30;99.90;;;;;;5003671;28;20018;-77
2022/04/23 04:29:12;;;;;;;20.75;14.35;;;4.40;99.90;;;;;;5003940;28;20041;-78
2022/04/23 04:31:50;;;;;;;26.27;15.38;;;4.40;99.90;;;;;;5007456;28;20037;-78
2022/04/23 04:34:28;;;;;;;22.30;15.38;;;4.40;99.90;;;;;;4998761;28;20037;-78
2022/04/23 04:37:02;;;;;;;21.70;14.82;;;4.40;99.90;;;;;;5002951;28;20041;-78
2022/04/23 04:39:27;;;;;;;22.30;14.43;;;4.40;99.90;;;;;;5002161;28;20030;-78
2022/04/23 04:41:53;;;;;;;22.00;14.77;;;4.40;99.90;;;;;;5004525;28;20033;-78
2022/04/23 04:44:18;;;;;;;18.33;13.90;;;4.50;99.90;;;;;;5007410;28;20112;-78
2022/04/23 04:46:44;;;;;;;22.25;15.27;;;4.50;99.90;;;;;;5009577;28;20477;-78
2022/04/23 04:49:09;;;;;;;20.52;14.25;;;4.60;99.90;;;;;;5003146;28;20030;-78
2022/04/23 04:51:36;;;;;;;20.33;13.93;;;4.70;99.90;;;;;;5004470;28;20028;-78
2022/04/23 04:54:05;;;;;;;19.30;14.10;;;4.80;99.90;;;;;;5004241;28;20030;-78
2022/04/23 04:56:32;;;;;;;20.00;13.95;;;4.80;99.90;;;;;;5001364;28;20408;-78
2022/04/23 04:58:57;;;;;;;20.25;14.85;;;4.90;99.90;;;;;;5001451;28;20061;-78
2022/04/23 05:01:23;;;;;;;22.35;15.02;;;4.90;99.90;;;;;;5003155;28;20413;-78
2022/04/23 05:03:48;;;;;;;20.60;14.25;;;4.90;99.90;;;;;;5005608;28;20077;-78
2022/04/23 05:06:14;;;;;;;20.92;14.75;;;5.00;99.90;;;;;;5002874;28;20022;-78
2022/04/23 05:08:39;;;;;;;22.75;14.77;;;5.00;99.90;;;;;;5002172;28;20045;-78
2022/04/23 05:11:05;;;;;;;23.60;15.13;;;5.10;99.90;;;;;;5002147;28;20049;-78
2022/04/23 05:13:31;;;;;;;21.42;15.27;;;5.20;99.90;;;;;;5005410;28;20539;-78
2022/04/23 05:15:58;;;;;;;21.45;15.60;;;5.20;99.90;;;;;;5006839;28;20030;-78
2022/04/23 05:18:23;;;;;;;22.92;14.95;;;5.30;99.90;;;;;;5003214;28;20084;-78
2022/04/23 05:20:49;;;;;;;20.80;15.10;;;5.30;99.90;;;;;;5003892;28;20105;-78
2022/04/23 05:23:14;;;;;;;22.17;15.75;;;5.40;99.90;;;;;;5006932;28;20042;-78
2022/04/23 05:25:40;;;;;;;20.35;14.68;;;5.50;99.90;;;;;;5011773;28;20030;-78
2022/04/23 05:28:06;;;;;;;25.52;15.45;;;5.60;99.90;;;;;;5004477;28;20026;-78
2022/04/23 05:30:32;;;;;;;24.88;16.35;;;5.70;99.90;;;;;;5004323;28;20116;-78
2022/04/23 05:32:57;;;;;;;21.75;15.77;;;5.80;99.90;;;;;;5009276;28;20112;-78
2022/04/23 05:35:23;;;;;;;21.08;15.23;;;6.00;99.90;;;;;;5004546;28;20080;-78
2022/04/23 05:37:48;;;;;;;26.17;14.82;;;6.10;99.90;;;;;;5008047;28;20022;-78
2022/04/23 05:40:14;;;;;;;21.05;14.93;;;6.20;99.90;;;;;;5006726;28;20049;-78
2022/04/23 05:42:39;;;;;;;19.88;14.20;;;6.30;99.90;;;;;;5004311;28;20006;-78
2022/04/23 05:45:05;;;;;;;20.98;14.07;;;6.40;99.90;;;;;;4999073;28;20025;-78
2022/04/23 05:47:30;;;;;;;21.10;13.80;;;6.50;99.90;;;;;;5006731;28;20377;-79
2022/04/23 05:49:56;;;;;;;22.05;13.68;;;6.60;99.90;;;;;;5005129;28;20028;-79
2022/04/23 05:52:22;;;;;;;18.35;13.35;;;6.70;99.90;;;;;;4999621;28;20080;-78
2022/04/23 05:54:48;;;;;;;18.38;12.88;;;6.80;99.90;;;;;;5001841;28;20030;-78
2022/04/23 05:57:22;;;;;;;25.30;13.90;;;6.90;99.90;;;;;;5008705;28;20029;-78
2022/04/23 05:59:47;;;;;;;17.20;12.55;;;7.10;99.90;;;;;;5004272;28;20045;-79
2022/04/23 06:02:13;;;;;;;15.80;12.38;;;7.20;99.90;;;;;;5005107;28;20040;-79
2022/04/23 06:04:39;;;;;;;16.95;12.68;;;7.30;99.90;;;;;;4997519;28;20030;-78
2022/04/23 06:07:04;;;;;;;17.38;12.63;;;7.40;99.90;;;;;;5003744;28;20109;-79
2022/04/23 06:09:29;;;;;;;16.83;12.32;;;7.50;99.90;;;;;;5011444;28;20096;-78
2022/04/23 06:11:55;;;;;;;16.13;11.98;;;7.60;99.90;;;;;;5008616;28;20046;-78
2022/04/23 06:14:20;;;;;;;16.70;11.30;;;7.80;99.90;;;;;;5008607;28;21358;-79
2022/04/23 06:16:46;;;;;;;18.67;12.57;;;7.80;99.90;;;;;;5002345;28;20100;-82
2022/04/23 06:19:11;;;;;;;14.73;11.63;;;7.90;99.90;;;;;;5001269;28;20563;-82
2022/04/23 06:21:37;;;;;;;18.23;12.23;;;8.00;99.90;;;;;;5006281;28;20033;-81
2022/04/23 06:24:02;;;;;;;20.65;11.60;;;8.10;99.90;;;;;;5006327;28;20040;-82
2022/04/23 06:26:28;;;;;;;15.95;11.88;;;8.20;99.90;;;;;;5005056;28;20018;-82
2022/04/23 06:29:27;;;;;;;15.43;11.15;;;8.30;99.90;;;;;;5005386;28;20022;-81
2022/04/23 06:31:52;;;;;;;17.00;11.98;;;8.40;99.90;;;;;;5001252;28;20049;-80
2022/04/23 06:34:18;;;;;;;15.20;11.38;;;8.50;99.90;;;;;;5007041;28;20026;-81
2022/04/23 06:36:44;;;;;;;16.65;11.25;;;8.50;99.90;;;;;;5003885;28;20032;-80
2022/04/23 06:39:09;;;;;;;15.65;11.57;;;8.60;99.90;;;;;;5007260;28;20026;-83
2022/04/23 06:41:55;;;;;;;15.18;11.25;;;8.70;99.90;;;;;;5005463;28;20473;-82
2022/04/23 06:44:36;;;;;;;16.08;11.40;;;8.80;99.90;;;;;;5006688;28;20065;-81
2022/04/23 06:47:04;;;;;;;16.92;11.93;;;8.90;99.90;;;;;;5009690;28;20034;-80
2022/04/23 06:49:30;;;;;;;17.00;11.30;;;9.00;99.90;;;;;;5006829;28;20034;-81
2022/04/23 06:51:55;;;;;;;15.35;10.95;;;9.10;99.90;;;;;;5015826;28;20026;-80
2022/04/23 06:54:22;;;;;;;15.02;10.82;;;9.20;99.90;;;;;;5009824;28;20029;-82
2022/04/23 06:56:48;;;;;;;17.13;10.85;;;9.30;99.90;;;;;;5008408;28;20396;-82
2022/04/23 06:59:13;;;;;;;15.45;11.20;;;9.40;99.90;;;;;;5009874;28;20032;-83
2022/04/23 07:01:42;;;;;;;14.73;10.35;;;9.50;99.90;;;;;;5008916;28;20037;-83
2022/04/23 07:04:08;;;;;;;15.82;11.13;;;9.60;99.90;;;;;;5009853;28;20030;-83
2022/04/23 07:06:34;;;;;;;13.00;9.75;;;9.70;99.90;;;;;;5009333;28;20112;-83
2022/04/23 07:09:00;;;;;;;14.10;10.63;;;9.90;99.90;;;;;;5009763;28;20113;-83
2022/04/23 07:11:25;;;;;;;14.10;10.48;;;9.90;99.90;;;;;;5008650;28;20048;-84
2022/04/23 07:13:51;;;;;;;15.15;10.40;;;10.00;99.90;;;;;;5010118;28;20129;-83
2022/04/23 07:16:17;;;;;;;18.77;9.80;;;10.10;98.30;;;;;;5006836;28;20037;-83
2022/04/23 07:18:43;;;;;;;14.05;9.73;;;10.20;98.10;;;;;;5010414;28;20382;-82
2022/04/23 07:21:08;;;;;;;12.95;9.77;;;10.30;98.30;;;;;;5010489;28;20032;-83
2022/04/23 07:26:18;;;;;;;12.50;9.15;;;10.50;96.50;;;;;;5008256;28;20053;-82
2022/04/23 07:28:43;;;;;;;12.63;9.63;;;10.70;95.30;;;;;;5010509;28;20461;-90
2022/04/23 07:31:09;;;;;;;16.70;8.85;;;10.70;96.50;;;;;;5016744;28;20503;-90
2022/04/23 07:39:03;;;;;;;12.95;9.30;;;11.10;93.00;;;;;;5009954;28;20037;-83
2022/04/23 07:41:29;;;;;;;13.25;9.18;;;11.10;92.50;;;;;;5008418;28;20109;-82
2022/04/23 07:43:55;;;;;;;12.25;9.23;;;11.30;93.80;;;;;;5007717;28;20545;-82
2022/04/23 07:46:21;;;;;;;11.38;8.95;;;11.40;92.80;;;;;;5003813;28;20116;-85
2022/04/23 07:48:46;;;;;;;13.27;10.07;;;11.40;91.80;;;;;;5006967;28;20120;-82
2022/04/23 07:51:18;;;;;;;12.70;9.93;;;11.50;93.20;;;;;;5005809;28;20061;-82
2022/04/23 07:53:44;;;;;;;16.42;9.50;;;11.50;91.80;;;;;;5009669;28;20017;-81
2022/04/23 07:56:09;;;;;;;14.50;10.43;;;11.60;91.90;;;;;;5006929;28;20074;-81
2022/04/23 07:58:35;;;;;;;13.65;9.45;;;11.70;92.70;;;;;;5007486;28;20022;-82
2022/04/23 08:01:01;;;;;;;13.82;9.85;;;11.80;91.00;;;;;;5008524;28;20416;-81
2022/04/23 08:03:28;;;;;;;15.13;9.95;;;11.90;91.30;;;;;;5008148;28;20034;-82
2022/04/23 08:05:53;;;;;;;12.40;9.70;;;11.90;91.80;;;;;;5008114;28;20033;-81
2022/04/23 08:08:19;;;;;;;11.50;9.27;;;12.00;91.10;;;;;;5008517;28;20021;-81
2022/04/23 08:10:45;;;;;;;13.70;9.68;;;12.00;90.70;;;;;;5007850;28;20147;-80
2022/04/23 08:13:11;;;;;;;12.40;9.23;;;12.10;91.20;;;;;;5006892;28;20458;-81
2022/04/23 08:15:36;;;;;;;11.43;9.10;;;12.30;90.00;;;;;;5007950;28;20105;-82
2022/04/23 08:18:02;;;;;;;10.40;8.50;;;12.30;88.80;;;;;;5007750;28;20172;-82
2022/04/23 08:20:30;;;;;;;10.27;8.57;;;12.40;90.00;;;;;;5004809;28;20109;-82
2022/04/23 08:22:56;;;;;;;11.63;8.77;;;12.50;88.30;;;;;;5007224;28;20026;-82
2022/04/23 08:25:21;;;;;;;12.02;9.00;;;12.60;87.50;;;;;;5004895;28;20337;-81
2022/04/23 08:27:52;;;;;;;11.75;8.82;;;12.80;85.00;;;;;;5006447;28;20057;-82
2022/04/23 08:30:36;;;;;;;10.40;8.35;;;12.90;86.40;;;;;;5008448;28;20070;-81
2022/04/23 08:33:06;;;;;;;11.02;8.57;;;13.10;86.90;;;;;;5008859;28;20063;-80
2022/04/23 08:35:34;;;;;;;10.52;8.38;;;13.20;84.80;;;;;;5006700;28;20038;-83
2022/04/23 08:38:00;;;;;;;9.30;7.90;;;13.30;82.60;;;;;;5015628;28;20026;-85
2022/04/23 08:40:29;;;;;;;9.75;8.02;;;13.30;81.20;;;;;;5009783;28;20039;-82
2022/04/23 08:42:56;;;;;;;11.27;8.32;;;13.50;84.10;;;;;;5005655;28;20032;-82
2022/04/23 08:45:22;;;;;;;9.02;7.63;;;13.60;82.90;;;;;;5005475;28;20362;-78
2022/04/23 08:47:48;;;;;;;13.13;7.68;;;13.70;80.70;;;;;;5010401;28;20042;-82
2022/04/23 08:50:16;;;;;;;9.57;7.05;;;13.80;78.90;;;;;;5010218;28;20556;-89
2022/04/23 08:52:42;;;;;;;11.00;7.85;;;13.90;77.40;;;;;;5013703;28;20034;-83
2022/04/23 08:55:09;;;;;;;10.13;7.25;;;14.00;77.70;;;;;;5008058;28;20033;-82
2022/04/23 08:57:38;;;;;;;8.93;7.30;;;13.90;78.40;;;;;;5008271;28;20029;-77
2022/04/23 09:00:08;;;;;;;7.82;6.55;;;14.00;76.90;;;;;;5007944;28;20116;-81
2022/04/23 09:02:35;;;;;;;7.88;7.03;;;14.20;74.20;;;;;;5008780;28;20034;-81
2022/04/23 09:05:01;;;;;;;7.97;6.80;;;14.30;77.00;;;;;;5007414;28;20036;-80
2022/04/23 09:07:29;;;;;;;9.70;7.65;;;14.60;74.60;;;;;;5008307;28;20038;-79
2022/04/23 09:09:55;;;;;;;7.32;6.53;;;14.70;73.20;;;;;;5009503;28;20033;-79
2022/04/23 09:12:25;;;;;;;9.43;7.00;;;14.90;73.70;;;;;;5008697;28;20384;-80
2022/04/23 09:23:39;;;;;;;8.20;6.53;;;15.20;72.00;;;;;;5010337;28;20037;-80
2022/04/23 09:23:40;;;;;;;8.95;6.70;;;15.40;67.00;;;;;;5002032;28;20033;-82
2022/04/23 09:26:17;;;;;;;8.77;5.78;;;15.50;67.00;;;;;;5011255;28;20461;-87
2022/04/23 09:28:52;;;;;;;9.77;6.47;;;15.70;65.40;;;;;;5005700;28;20027;-87
2022/04/23 09:31:17;;;;;;;10.45;6.95;;;15.90;66.80;;;;;;5006676;28;20100;-89
2022/04/23 09:33:51;;;;;;;7.88;6.40;;;16.20;66.60;;;;;;5008694;28;20034;-88
2022/04/23 09:36:16;;;;;;;6.18;5.50;;;16.40;64.10;;;;;;5003825;28;20072;-83
2022/04/23 09:38:42;;;;;;;5.50;4.90;;;16.60;59.60;;;;;;5026930;28;20025;-89
2022/04/23 09:41:16;;;;;;;8.55;5.70;;;16.50;59.00;;;;;;5017850;28;20042;-88
2022/04/23 09:43:43;;;;;;;6.63;5.85;;;16.50;60.20;;;;;;5001855;28;20116;-84
2022/04/23 09:46:09;;;;;;;7.72;5.70;;;16.70;61.30;;;;;;5008035;28;20089;-84
2022/04/23 09:48:38;;;;;;;5.88;5.18;;;16.70;58.40;;;;;;5006550;28;20033;-84
2022/04/23 09:51:04;;;;;;;8.05;5.25;;;16.70;58.60;;;;;;5006829;28;20108;-79
2022/04/23 09:53:30;;;;;;;5.78;4.95;;;16.50;59.10;;;;;;5005017;28;20057;-78
2022/04/23 09:55:59;;;;;;;7.28;5.20;;;16.60;58.50;;;;;;5005620;28;20080;-79
2022/04/23 09:58:31;;;;;;;6.40;5.68;;;16.60;58.80;;;;;;5004437;28;20069;-79
2022/04/23 10:00:57;;;;;;;7.97;4.90;;;16.70;57.30;;;;;;5005484;28;20034;-85
2022/04/23 10:03:33;;;;;;;6.90;5.18;;;16.70;55.00;;;;;;5003165;28;20034;-84
2022/04/23 10:06:00;;;;;;;5.60;4.97;;;16.50;56.90;;;;;;5010826;28;20029;-78
2022/04/23 10:08:30;;;;;;;24.58;4.50;;;16.60;58.20;;;;;;5006846;28;20030;-79
2022/04/23 10:11:16;;;;;;;5.60;4.80;;;16.70;57.30;;;;;;5005036;28;20397;-88
2022/04/23 10:13:45;;;;;;;4.95;4.30;;;16.60;56.40;;;;;;5005492;28;20396;-85
2022/04/23 10:16:11;;;;;;;6.18;4.80;;;16.70;56.10;;;;;;5006515;28;20029;-87
2022/04/23 10:18:38;;;;;;;5.68;5.05;;;17.00;57.90;;;;;;5009227;28;20034;-85
2022/04/23 10:21:08;;;;;;;8.57;5.25;;;17.20;56.10;;;;;;5008439;28;20125;-86
2022/04/23 10:24:07;;;;;;;5.90;5.30;;;17.00;55.60;;;;;;5009668;28;20030;-85
2022/04/23 10:26:41;;;;;;;5.00;4.50;;;17.10;56.40;;;;;;5007606;28;20136;-84
2022/04/23 10:29:09;;;;;;;6.45;5.10;;;17.40;54.50;;;;;;5012657;28;20030;-84
2022/04/23 10:31:35;;;;;;;7.13;5.03;;;17.70;56.30;;;;;;5019138;28;20026;-83
2022/04/23 10:34:01;;;;;;;4.75;4.25;;;17.70;54.40;;;;;;5010949;28;20063;-87
2022/04/23 10:36:27;;;;;;;6.20;4.10;;;18.00;53.60;;;;;;5011742;28;20022;-83
2022/04/23 10:39:19;;;;;;;5.00;4.50;;;18.20;54.80;;;;;;5014972;28;20800;-79
2022/04/23 10:41:45;;;;;;;4.53;4.10;;;18.30;53.70;;;;;;5016237;28;20219;-85
2022/04/23 10:44:12;;;;;;;4.95;4.15;;;18.20;51.50;;;;;;5012065;28;20532;-84
2022/04/23 10:46:38;;;;;;;4.90;4.15;;;18.30;53.20;;;;;;5006399;28;20045;-87
2022/04/23 10:49:19;;;;;;;5.00;4.50;;;18.30;54.20;;;;;;5010072;28;20551;-89
2022/04/23 10:51:57;;;;;;;4.90;4.40;;;18.50;52.60;;;;;;5011969;28;20029;-89
2022/04/23 10:54:44;;;;;;;6.82;4.68;;;18.50;51.70;;;;;;5013554;28;20052;-85
2022/04/23 10:57:11;;;;;;;6.85;4.53;;;18.50;51.50;;;;;;5009617;28;20469;-87
2022/04/23 10:59:43;;;;;;;6.38;4.30;;;18.60;53.60;;;;;;5012960;28;20113;-88
2022/04/23 11:02:11;;;;;;;;;;;18.60;51.80;;;;;;5009993;28;20044;-85
2022/04/23 11:13:29;;;;;;;6.55;4.68;;;19.90;50.00;;;;;;5009109;28;20064;-85
2022/04/23 11:16:08;;;;;;;5.05;4.50;;;19.50;48.20;;;;;;5007450;28;20076;-87
2022/04/23 11:18:34;;;;;;;5.35;4.40;;;19.70;50.90;;;;;;5009031;28;20088;-86
2022/04/23 11:21:06;;;;;;;5.82;4.75;;;19.90;50.00;;;;;;5010393;28;20112;-86
2022/04/23 11:23:33;;;;;;;5.38;4.45;;;20.00;48.70;;;;;;5008242;28;20149;-87
2022/04/23 11:25:58;;;;;;;4.90;4.40;;;20.30;48.70;;;;;;5008915;28;20030;-88
2022/04/23 11:28:24;;;;;;;5.90;4.40;;;20.80;50.20;;;;;;5010747;28;20032;-87
2022/04/23 11:30:51;;;;;;;4.47;4.07;;;20.70;46.50;;;;;;5007256;28;20030;-86
2022/04/23 11:33:17;;;;;;;4.75;3.70;;;20.60;47.10;;;;;;5009194;28;20188;-89
2022/04/23 11:35:42;;;;;;;3.60;3.30;;;20.50;45.70;;;;;;5009612;28;20121;-87
2022/04/23 11:38:23;;;;;;;5.32;4.20;;;20.80;45.40;;;;;;5011368;28;20076;-90
2022/04/23 11:40:49;;;;;;;5.88;3.97;;;21.10;45.20;;;;;;5012916;28;20089;-87
2022/04/23 11:43:32;;;;;;;4.90;4.40;;;21.40;45.80;;;;;;5005079;28;20117;-87
2022/04/23 11:46:15;;;;;;;4.70;3.70;;;21.80;46.60;;;;;;5006068;28;20567;-79
2022/04/23 11:48:50;;;;;;;5.13;3.92;;;22.50;45.20;;;;;;5018485;28;20033;-84
2022/04/23 11:51:18;;;;;;;4.55;4.00;;;22.40;44.10;;;;;;5014935;28;20010;-85
2022/04/23 11:53:49;;;;;;;4.88;4.00;;;22.60;42.90;;;;;;5013202;28;20029;-87
2022/04/23 11:56:22;;;;;;;7.30;4.43;;;22.10;42.20;;;;;;5026622;28;20362;-85
2022/04/23 11:58:48;;;;;;;4.57;3.50;;;21.40;43.20;;;;;;5008191;28;20038;-84
2022/04/23 12:01:14;;;;;;;4.65;3.97;;;21.20;44.40;;;;;;5011543;28;20100;-84
2022/04/23 12:03:58;;;;;;;4.75;4.22;;;20.90;43.40;;;;;;5009127;28;20123;-85
2022/04/23 12:06:24;;;;;;;4.53;4.13;;;20.80;45.50;;;;;;5005014;28;20034;-84
2022/04/23 12:08:50;;;;;;;4.50;4.10;;;21.60;45.50;;;;;;5011333;28;20745;-84
2022/04/23 12:11:28;;;;;;;4.55;3.95;;;21.80;43.50;;;;;;5011804;28;20042;-82
2022/04/23 12:13:54;;;;;;;5.00;4.30;;;22.60;45.00;;;;;;5013503;28;20022;-81
2022/04/23 12:16:36;;;;;;;6.53;4.32;;;23.10;43.00;;;;;;5021683;28;20406;-81
2022/04/23 12:19:07;;;;;;;4.35;3.88;;;23.20;40.90;;;;;;5008831;28;20084;-81
2022/04/23 12:21:34;;;;;;;4.28;3.85;;;23.90;42.30;;;;;;5024381;28;20551;-79
2022/04/23 12:24:00;;;;;;;4.65;4.10;;;23.90;40.50;;;;;;5023015;28;20041;-82
2022/04/23 12:26:34;;;;;;;3.88;3.58;;;24.20;38.40;;;;;;5010335;28;20104;-82
2022/04/23 12:42:36;;;;;;;5.03;3.97;;;23.90;38.50;;;;;;5005896;28;20033;-84
2022/04/23 12:45:27;;;;;;;5.68;3.85;;;23.50;41.00;;;;;;5009078;28;20034;-75
2022/04/23 12:48:04;;;;;;;4.35;3.65;;;24.20;38.90;;;;;;5003883;28;20037;-76
2022/04/23 12:50:30;;;;;;;5.85;3.90;;;25.80;37.70;;;;;;5006642;28;20041;-79
2022/04/23 12:52:55;;;;;;;5.60;4.00;;;27.50;36.20;;;;;;5006204;28;20018;-81
2022/04/23 12:55:26;;;;;;;5.13;4.63;;;27.30;34.40;;;;;;5008076;28;20037;-78
2022/04/23 12:58:00;;;;;;;5.40;4.45;;;25.40;35.50;;;;;;5006734;28;20057;-78
2022/04/23 13:00:27;;;;;;;4.72;4.00;;;23.70;38.10;;;;;;5008201;28;20153;-79
2022/04/23 13:02:57;;;;;;;7.03;4.22;;;22.60;40.50;;;;;;5007808;28;20034;-76
2022/04/23 13:05:23;;;;;;;5.68;3.85;;;24.70;39.90;;;;;;5006039;28;20028;-80
2022/04/23 13:10:33;;;;;;;3.92;3.42;;;27.70;35.10;;;;;;5002233;28;20104;-81
2022/04/23 13:13:00;;;;;;;4.78;4.00;;;28.70;33.40;;;;;;5017805;28;20014;-76
2022/04/23 13:15:26;;;;;;;4.75;4.30;;;27.40;32.40;;;;;;5010963;28;20084;-85
2022/04/23 13:17:52;;;;;;;4.22;3.83;;;25.30;35.30;;;;;;5006963;28;20034;-83
2022/04/23 13:20:19;;;;;;;5.35;4.03;;;24.30;36.60;;;;;;5010710;28;20517;-88
2022/04/23 13:22:45;;;;;;;4.82;3.60;;;22.60;39.50;;;;;;5012624;28;20100;-83